In Rescue
 
Open Full Screen Window  High Contrast Mode
Wind Gusting 00 knots
05
December 19, 2018 8:04 AM PST
Weather Information
Wind Direction
  050 °
Wind Speed
  05 kt (6 mph)
Wind Gust
  00 kt (0 mph)
Altimeter
30.19 in
Visibility
10 SM
Temperature
10° C
50° F
Dewpoint
04° C
39° F
Humidity
67%
1hr Rain Fall
00.00 in.
24hr Rain Fall
00.00 in.
Sky Condition
Clear
VFR

METAR KSBD 191604Z AUTO 05005KT 10SM CLR 10/04 A3019 RMK AO2 T00970035

FAA Disclaimer: The data displayed is for advisory purposes only and is not to be used for flight planning or operations.